sensor_id;sensor_type;location;lat;lon;timestamp;pressure;altitude;pressure_sealevel;temperature;humidity
16030;BME280;34770;49.272;11.070;2023-01-15T00:01:04;96607.03;;;8.43;94.56
16030;BME280;34770;49.272;11.070;2023-01-15T00:03:30;96605.59;;;8.50;93.99
16030;BME280;34770;49.272;11.070;2023-01-15T00:06:00;96599.38;;;8.56;93.91
16030;BME280;34770;49.272;11.070;2023-01-15T00:08:27;96589.78;;;8.50;93.91
16030;BME280;34770;49.272;11.070;2023-01-15T00:10:52;96589.06;;;8.57;94.26
16030;BME280;34770;49.272;11.070;2023-01-15T00:13:18;96574.22;;;8.45;94.86
16030;BME280;34770;49.272;11.070;2023-01-15T00:15:43;96579.31;;;8.43;94.84
16030;BME280;34770;49.272;11.070;2023-01-15T00:18:09;96588.66;;;8.55;95.37
16030;BME280;34770;49.272;11.070;2023-01-15T00:20:34;96572.44;;;8.57;94.92
16030;BME280;34770;49.272;11.070;2023-01-15T00:23:00;96568.16;;;8.63;95.04
16030;BME280;34770;49.272;11.070;2023-01-15T00:25:25;96544.75;;;8.60;94.36
16030;BME280;34770;49.272;11.070;2023-01-15T00:28:12;96542.75;;;8.57;94.55
16030;BME280;34770;49.272;11.070;2023-01-15T00:30:41;96550.06;;;8.69;95.07
16030;BME280;34770;49.272;11.070;2023-01-15T00:33:07;96556.34;;;8.66;95.56
16030;BME280;34770;49.272;11.070;2023-01-15T00:35:33;96532.09;;;8.63;94.95
16030;BME280;34770;49.272;11.070;2023-01-15T00:37:59;96527.31;;;8.60;95.00
16030;BME280;34770;49.272;11.070;2023-01-15T00:40:24;96548.47;;;8.68;96.07
16030;BME280;34770;49.272;11.070;2023-01-15T00:42:50;96551.44;;;8.83;94.86
16030;BME280;34770;49.272;11.070;2023-01-15T00:45:15;96548.97;;;8.77;95.81
16030;BME280;34770;49.272;11.070;2023-01-15T00:47:43;96548.28;;;8.84;95.47
16030;BME280;34770;49.272;11.070;2023-01-15T00:50:11;96531.06;;;8.71;96.08
16030;BME280;34770;49.272;11.070;2023-01-15T00:52:37;96531.88;;;8.72;96.36
16030;BME280;34770;49.272;11.070;2023-01-15T00:55:04;96545.91;;;8.83;96.06
16030;BME280;34770;49.272;11.070;2023-01-15T00:57:36;96536.22;;;8.73;96.69
16030;BME280;34770;49.272;11.070;2023-01-15T01:00:02;96537.41;;;8.72;97.27
16030;BME280;34770;49.272;11.070;2023-01-15T01:02:28;96529.88;;;8.72;96.85
16030;BME280;34770;49.272;11.070;2023-01-15T01:04:53;96521.06;;;8.67;97.38
16030;BME280;34770;49.272;11.070;2023-01-15T01:07:19;96531.53;;;8.77;96.88
16030;BME280;34770;49.272;11.070;2023-01-15T01:09:47;96517.63;;;8.73;97.38
16030;BME280;34770;49.272;11.070;2023-01-15T01:12:12;96516.34;;;8.67;97.32
16030;BME280;34770;49.272;11.070;2023-01-15T01:14:38;96520.06;;;8.78;96.09
16030;BME280;34770;49.272;11.070;2023-01-15T01:17:03;96511.72;;;8.78;95.63
16030;BME280;34770;49.272;11.070;2023-01-15T01:19:29;96507.59;;;8.65;96.59
16030;BME280;34770;49.272;11.070;2023-01-15T01:21:54;96516.56;;;8.82;95.95
16030;BME280;34770;49.272;11.070;2023-01-15T01:24:22;96512.56;;;8.79;95.79
16030;BME280;34770;49.272;11.070;2023-01-15T01:26:49;96506.09;;;8.71;96.29
16030;BME280;34770;49.272;11.070;2023-01-15T01:29:18;96506.25;;;8.82;95.01
16030;BME280;34770;49.272;11.070;2023-01-15T01:31:44;96510.72;;;8.90;93.65
16030;BME280;34770;49.272;11.070;2023-01-15T01:34:11;96519.00;;;8.87;93.53
16030;BME280;34770;49.272;11.070;2023-01-15T01:36:38;96517.47;;;8.93;93.08
16030;BME280;34770;49.272;11.070;2023-01-15T01:39:06;96499.91;;;8.82;93.92
16030;BME280;34770;49.272;11.070;2023-01-15T01:41:34;96491.97;;;8.84;93.16
16030;BME280;34770;49.272;11.070;2023-01-15T01:44:00;96489.97;;;8.81;93.25
16030;BME280;34770;49.272;11.070;2023-01-15T01:46:29;96492.31;;;8.78;93.26
16030;BME280;34770;49.272;11.070;2023-01-15T01:48:59;96496.69;;;8.80;93.61
16030;BME280;34770;49.272;11.070;2023-01-15T01:51:28;96474.94;;;8.82;91.88
16030;BME280;34770;49.272;11.070;2023-01-15T01:53:56;96469.88;;;8.91;90.45
16030;BME280;34770;49.272;11.070;2023-01-15T01:56:23;96439.50;;;8.71;90.56
16030;BME280;34770;49.272;11.070;2023-01-15T01:58:51;96455.38;;;8.71;91.57
16030;BME280;34770;49.272;11.070;2023-01-15T02:01:20;96457.06;;;8.79;91.07
16030;BME280;34770;49.272;11.070;2023-01-15T02:03:47;96459.84;;;8.79;90.89
16030;BME280;34770;49.272;11.070;2023-01-15T02:06:13;96433.31;;;8.82;89.95
16030;BME280;34770;49.272;11.070;2023-01-15T02:08:40;96431.63;;;8.73;89.92
16030;BME280;34770;49.272;11.070;2023-01-15T02:11:09;96444.91;;;8.91;88.85
16030;BME280;34770;49.272;11.070;2023-01-15T02:13:46;96430.94;;;8.84;88.90
16030;BME280;34770;49.272;11.070;2023-01-15T02:17:28;96436.50;;;8.84;88.79
16030;BME280;34770;49.272;11.070;2023-01-15T02:27:18;96424.03;;;9.01;85.99
16030;BME280;34770;49.272;11.070;2023-01-15T02:30:00;96429.56;;;8.97;86.56
16030;BME280;34770;49.272;11.070;2023-01-15T02:32:48;96429.16;;;8.99;85.88
16030;BME280;34770;49.272;11.070;2023-01-15T02:35:28;96415.00;;;9.07;85.15
16030;BME280;34770;49.272;11.070;2023-01-15T02:37:58;96405.41;;;9.01;84.28
16030;BME280;34770;49.272;11.070;2023-01-15T02:40:28;96415.00;;;9.07;85.33
16030;BME280;34770;49.272;11.070;2023-01-15T02:42:56;96405.84;;;9.03;85.56
16030;BME280;34770;49.272;11.070;2023-01-15T02:45:30;96404.94;;;8.96;86.59
16030;BME280;34770;49.272;11.070;2023-01-15T02:48:02;96409.34;;;9.00;85.86
16030;BME280;34770;49.272;11.070;2023-01-15T02:50:35;96412.53;;;8.99;86.31
16030;BME280;34770;49.272;11.070;2023-01-15T02:53:06;96408.84;;;8.91;86.43
16030;BME280;34770;49.272;11.070;2023-01-15T02:55:42;96398.94;;;8.90;85.67
16030;BME280;34770;49.272;11.070;2023-01-15T02:58:13;96399.72;;;8.90;86.71
16030;BME280;34770;49.272;11.070;2023-01-15T03:00:43;96374.22;;;8.77;86.73
16030;BME280;34770;49.272;11.070;2023-01-15T03:03:32;96400.59;;;8.98;85.40
16030;BME280;34770;49.272;11.070;2023-01-15T03:06:04;96381.06;;;8.87;85.47
16030;BME280;34770;49.272;11.070;2023-01-15T03:08:32;96388.59;;;8.87;86.26
16030;BME280;34770;49.272;11.070;2023-01-15T03:11:10;96379.19;;;8.95;85.37
16030;BME280;34770;49.272;11.070;2023-01-15T03:19:43;96376.22;;;9.15;83.01
16030;BME280;34770;49.272;11.070;2023-01-15T03:27:19;96375.22;;;9.34;81.53
16030;BME280;34770;49.272;11.070;2023-01-15T03:29:47;96376.38;;;9.29;81.76
16030;BME280;34770;49.272;11.070;2023-01-15T03:32:16;96348.88;;;9.17;81.99
16030;BME280;34770;49.272;11.070;2023-01-15T03:34:47;96375.41;;;9.52;79.50
16030;BME280;34770;49.272;11.070;2023-01-15T03:37:13;96378.88;;;9.45;79.83
16030;BME280;34770;49.272;11.070;2023-01-15T03:39:40;96364.47;;;9.32;80.33
16030;BME280;34770;49.272;11.070;2023-01-15T03:44:49;96352.41;;;9.55;77.92
16030;BME280;34770;49.272;11.070;2023-01-15T03:47:23;96387.03;;;9.68;78.41
16030;BME280;34770;49.272;11.070;2023-01-15T03:50:13;96369.13;;;9.62;78.74
16030;BME280;34770;49.272;11.070;2023-01-15T03:55:41;96364.84;;;9.72;79.12
16030;BME280;34770;49.272;11.070;2023-01-15T03:58:26;96372.41;;;9.75;79.33
16030;BME280;34770;49.272;11.070;2023-01-15T04:00:55;96371.63;;;9.78;79.62
16030;BME280;34770;49.272;11.070;2023-01-15T04:03:24;96354.19;;;9.81;79.76
16030;BME280;34770;49.272;11.070;2023-01-15T04:05:51;96369.72;;;9.86;80.29
16030;BME280;34770;49.272;11.070;2023-01-15T04:08:19;96343.00;;;9.70;81.05
16030;BME280;34770;49.272;11.070;2023-01-15T04:10:55;96362.53;;;9.81;81.94
16030;BME280;34770;49.272;11.070;2023-01-15T04:13:21;96353.78;;;9.79;83.34
16030;BME280;34770;49.272;11.070;2023-01-15T04:15:46;96350.16;;;9.71;85.27
16030;BME280;34770;49.272;11.070;2023-01-15T04:18:12;96347.75;;;9.66;86.76
16030;BME280;34770;49.272;11.070;2023-01-15T04:20:37;96351.25;;;9.60;88.93
16030;BME280;34770;49.272;11.070;2023-01-15T04:23:03;96344.47;;;9.57;89.40
16030;BME280;34770;49.272;11.070;2023-01-15T04:25:28;96340.47;;;9.51;89.86
16030;BME280;34770;49.272;11.070;2023-01-15T04:27:54;96337.31;;;9.52;91.12
16030;BME280;34770;49.272;11.070;2023-01-15T04:30:20;96339.63;;;9.47;92.03
16030;BME280;34770;49.272;11.070;2023-01-15T04:32:51;96330.06;;;9.40;92.10
16030;BME280;34770;49.272;11.070;2023-01-15T04:35:18;96335.28;;;9.46;92.53
16030;BME280;34770;49.272;11.070;2023-01-15T04:37:44;96315.28;;;9.29;93.41
16030;BME280;34770;49.272;11.070;2023-01-15T04:40:10;96334.00;;;9.39;94.23
16030;BME280;34770;49.272;11.070;2023-01-15T04:42:56;96328.41;;;9.36;94.67
16030;BME280;34770;49.272;11.070;2023-01-15T04:45:40;96321.72;;;9.40;95.59
16030;BME280;34770;49.272;11.070;2023-01-15T04:48:07;96321.31;;;9.38;96.03
16030;BME280;34770;49.272;11.070;2023-01-15T04:50:32;96319.69;;;9.34;96.46
16030;BME280;34770;49.272;11.070;2023-01-15T04:52:57;96307.72;;;9.26;97.32
16030;BME280;34770;49.272;11.070;2023-01-15T04:55:23;96302.97;;;9.26;97.15
16030;BME280;34770;49.272;11.070;2023-01-15T04:57:49;96291.09;;;9.30;95.99
16030;BME280;34770;49.272;11.070;2023-01-15T05:00:14;96285.22;;;9.38;95.11
16030;BME280;34770;49.272;11.070;2023-01-15T05:02:40;96286.44;;;9.41;95.33
16030;BME280;34770;49.272;11.070;2023-01-15T05:05:06;96279.34;;;9.47;93.92
16030;BME280;34770;49.272;11.070;2023-01-15T05:07:32;96260.25;;;9.38;94.24
16030;BME280;34770;49.272;11.070;2023-01-15T05:09:57;96268.19;;;9.40;95.79
16030;BME280;34770;49.272;11.070;2023-01-15T05:12:22;96255.38;;;9.28;97.60
16030;BME280;34770;49.272;11.070;2023-01-15T05:14:48;96263.34;;;9.33;97.65
16030;BME280;34770;49.272;11.070;2023-01-15T05:17:13;96235.41;;;9.12;98.69
16030;BME280;34770;49.272;11.070;2023-01-15T05:19:39;96233.97;;;9.25;98.19
16030;BME280;34770;49.272;11.070;2023-01-15T05:22:04;96247.06;;;9.28;98.56
16030;BME280;34770;49.272;11.070;2023-01-15T05:24:30;96237.63;;;9.36;97.29
16030;BME280;34770;49.272;11.070;2023-01-15T05:26:55;96230.88;;;9.37;95.81
16030;BME280;34770;49.272;11.070;2023-01-15T05:29:22;96242.41;;;9.43;96.33
16030;BME280;34770;49.272;11.070;2023-01-15T05:31:47;96230.47;;;9.35;95.83
16030;BME280;34770;49.272;11.070;2023-01-15T05:34:13;96225.00;;;9.50;94.64
16030;BME280;34770;49.272;11.070;2023-01-15T05:36:39;96242.84;;;9.49;95.13
16030;BME280;34770;49.272;11.070;2023-01-15T05:39:04;96245.28;;;9.57;93.70
16030;BME280;34770;49.272;11.070;2023-01-15T05:41:30;96239.38;;;9.59;93.62
16030;BME280;34770;49.272;11.070;2023-01-15T05:46:42;96250.91;;;9.68;93.06
16030;BME280;34770;49.272;11.070;2023-01-15T05:49:11;96239.41;;;9.66;92.59
16030;BME280;34770;49.272;11.070;2023-01-15T05:51:38;96252.50;;;9.66;93.43
16030;BME280;34770;49.272;11.070;2023-01-15T05:54:05;96251.38;;;9.78;91.86
16030;BME280;34770;49.272;11.070;2023-01-15T05:56:31;96238.66;;;9.73;91.84
16030;BME280;34770;49.272;11.070;2023-01-15T05:58:58;96247.00;;;9.77;91.41
16030;BME280;34770;49.272;11.070;2023-01-15T06:01:24;96209.47;;;9.41;92.49
16030;BME280;34770;49.272;11.070;2023-01-15T06:03:49;96234.25;;;9.68;92.52
16030;BME280;34770;49.272;11.070;2023-01-15T06:06:17;96238.63;;;9.69;91.91
16030;BME280;34770;49.272;11.070;2023-01-15T06:08:43;96250.25;;;9.89;91.42
16030;BME280;34770;49.272;11.070;2023-01-15T06:11:09;96230.38;;;9.84;91.76
16030;BME280;34770;49.272;11.070;2023-01-15T06:13:35;96235.94;;;9.84;91.43
16030;BME280;34770;49.272;11.070;2023-01-15T06:16:01;96238.28;;;9.82;92.30
16030;BME280;34770;49.272;11.070;2023-01-15T06:18:27;96226.41;;;9.85;92.66
16030;BME280;34770;49.272;11.070;2023-01-15T06:20:52;96232.72;;;9.82;93.07
16030;BME280;34770;49.272;11.070;2023-01-15T06:23:18;96229.91;;;9.74;94.59
16030;BME280;34770;49.272;11.070;2023-01-15T06:25:46;96214.75;;;9.61;94.82
16030;BME280;34770;49.272;11.070;2023-01-15T06:28:12;96237.50;;;9.78;94.00
16030;BME280;34770;49.272;11.070;2023-01-15T06:30:38;96225.97;;;9.79;94.19
16030;BME280;34770;49.272;11.070;2023-01-15T06:33:05;96235.88;;;9.77;94.70
16030;BME280;34770;49.272;11.070;2023-01-15T06:35:35;96240.31;;;9.88;93.37
16030;BME280;34770;49.272;11.070;2023-01-15T06:38:00;96204.13;;;9.74;93.31
16030;BME280;34770;49.272;11.070;2023-01-15T06:40:26;96236.75;;;9.88;93.99
16030;BME280;34770;49.272;11.070;2023-01-15T06:42:53;96232.34;;;9.80;96.22
16030;BME280;34770;49.272;11.070;2023-01-15T06:45:40;96244.56;;;9.64;99.25
16030;BME280;34770;49.272;11.070;2023-01-15T06:48:24;96248.47;;;9.56;100.00
16030;BME280;34770;49.272;11.070;2023-01-15T06:50:50;96250.72;;;9.43;100.00
16030;BME280;34770;49.272;11.070;2023-01-15T06:53:16;96246.34;;;9.35;100.00
16030;BME280;34770;49.272;11.070;2023-01-15T06:55:42;96246.66;;;9.30;100.00
16030;BME280;34770;49.272;11.070;2023-01-15T06:58:07;96256.16;;;9.21;100.00
16030;BME280;34770;49.272;11.070;2023-01-15T07:00:33;96276.66;;;9.09;100.00
16030;BME280;34770;49.272;11.070;2023-01-15T07:03:00;96309.00;;;8.94;100.00
16030;BME280;34770;49.272;11.070;2023-01-15T07:05:25;96337.44;;;8.50;100.00
16030;BME280;34770;49.272;11.070;2023-01-15T07:07:50;96319.19;;;8.19;100.00
16030;BME280;34770;49.272;11.070;2023-01-15T07:10:16;96285.66;;;7.97;100.00
16030;BME280;34770;49.272;11.070;2023-01-15T07:12:41;96345.59;;;7.82;100.00
16030;BME280;34770;49.272;11.070;2023-01-15T07:15:07;96320.91;;;7.73;100.00
16030;BME280;34770;49.272;11.070;2023-01-15T07:17:33;96334.97;;;7.61;100.00
16030;BME280;34770;49.272;11.070;2023-01-15T07:19:58;96356.22;;;7.53;100.00
16030;BME280;34770;49.272;11.070;2023-01-15T07:22:24;96362.47;;;7.50;100.00
16030;BME280;34770;49.272;11.070;2023-01-15T07:24:49;96374.66;;;7.45;100.00
16030;BME280;34770;49.272;11.070;2023-01-15T07:27:16;96370.78;;;7.50;100.00
16030;BME280;34770;49.272;11.070;2023-01-15T07:33:20;96263.16;;;6.75;100.00
16030;BME280;34770;49.272;11.070;2023-01-15T07:35:48;96301.41;;;6.93;100.00
16030;BME280;34770;49.272;11.070;2023-01-15T07:51:56;96327.06;;;6.70;100.00
16030;BME280;34770;49.272;11.070;2023-01-15T07:54:37;96388.44;;;6.99;100.00
16030;BME280;34770;49.272;11.070;2023-01-15T07:57:17;96381.91;;;7.07;100.00
16030;BME280;34770;49.272;11.070;2023-01-15T07:59:45;96372.31;;;6.81;100.00
16030;BME280;34770;49.272;11.070;2023-01-15T08:02:12;96312.91;;;6.32;100.00
16030;BME280;34770;49.272;11.070;2023-01-15T08:04:42;96306.13;;;6.30;100.00
16030;BME280;34770;49.272;11.070;2023-01-15T08:07:13;96429.22;;;7.02;100.00
16030;BME280;34770;49.272;11.070;2023-01-15T08:09:40;96359.88;;;6.32;100.00
16030;BME280;34770;49.272;11.070;2023-01-15T08:12:06;96403.25;;;6.48;100.00
16030;BME280;34770;49.272;11.070;2023-01-15T08:14:50;96414.53;;;6.59;100.00
16030;BME280;34770;49.272;11.070;2023-01-15T08:17:39;96356.00;;;6.17;100.00
16030;BME280;34770;49.272;11.070;2023-01-15T08:20:10;96404.91;;;6.52;100.00
16030;BME280;34770;49.272;11.070;2023-01-15T08:22:37;96364.88;;;6.27;100.00
16030;BME280;34770;49.272;11.070;2023-01-15T08:25:03;96366.31;;;6.20;100.00
16030;BME280;34770;49.272;11.070;2023-01-15T08:27:29;96385.94;;;6.15;100.00
16030;BME280;34770;49.272;11.070;2023-01-15T08:29:55;96413.03;;;6.26;100.00
16030;BME280;34770;49.272;11.070;2023-01-15T08:32:22;96491.41;;;6.53;100.00
16030;BME280;34770;49.272;11.070;2023-01-15T08:34:48;96406.03;;;5.64;100.00
16030;BME280;34770;49.272;11.070;2023-01-15T08:37:36;96504.00;;;6.34;100.00
16030;BME280;34770;49.272;11.070;2023-01-15T08:40:08;96401.31;;;5.65;100.00
16030;BME280;34770;49.272;11.070;2023-01-15T08:42:34;96505.72;;;6.07;100.00
16030;BME280;34770;49.272;11.070;2023-01-15T08:45:00;96510.63;;;6.14;100.00
16030;BME280;34770;49.272;11.070;2023-01-15T08:47:25;96511.75;;;5.97;100.00
16030;BME280;34770;49.272;11.070;2023-01-15T08:49:51;96521.13;;;6.08;100.00
16030;BME280;34770;49.272;11.070;2023-01-15T08:52:16;96526.72;;;5.96;100.00
16030;BME280;34770;49.272;11.070;2023-01-15T08:54:42;96522.81;;;5.97;100.00
16030;BME280;34770;49.272;11.070;2023-01-15T08:57:08;96522.72;;;5.93;100.00
16030;BME280;34770;49.272;11.070;2023-01-15T08:59:34;96538.47;;;5.93;100.00
16030;BME280;34770;49.272;11.070;2023-01-15T09:02:00;96537.31;;;5.78;100.00
16030;BME280;34770;49.272;11.070;2023-01-15T09:04:25;96526.16;;;5.74;100.00
16030;BME280;34770;49.272;11.070;2023-01-15T09:06:51;96554.66;;;5.78;100.00
16030;BME280;34770;49.272;11.070;2023-01-15T09:09:17;96567.31;;;5.79;100.00
16030;BME280;34770;49.272;11.070;2023-01-15T09:11:43;96583.50;;;5.65;100.00
16030;BME280;34770;49.272;11.070;2023-01-15T09:14:11;96588.59;;;5.63;100.00
16030;BME280;34770;49.272;11.070;2023-01-15T09:16:38;96603.19;;;5.35;100.00
16030;BME280;34770;49.272;11.070;2023-01-15T09:19:05;96588.34;;;5.27;100.00
16030;BME280;34770;49.272;11.070;2023-01-15T09:21:31;96603.13;;;5.47;100.00
16030;BME280;34770;49.272;11.070;2023-01-15T09:23:56;96586.81;;;5.42;100.00
16030;BME280;34770;49.272;11.070;2023-01-15T09:26:33;96579.34;;;5.42;100.00
16030;BME280;34770;49.272;11.070;2023-01-15T09:29:00;96592.56;;;5.37;100.00
16030;BME280;34770;49.272;11.070;2023-01-15T09:31:26;96597.03;;;5.41;100.00
16030;BME280;34770;49.272;11.070;2023-01-15T09:33:52;96607.97;;;5.38;100.00
16030;BME280;34770;49.272;11.070;2023-01-15T09:36:29;96618.00;;;5.30;100.00
16030;BME280;34770;49.272;11.070;2023-01-15T09:38:55;96618.34;;;5.41;100.00
16030;BME280;34770;49.272;11.070;2023-01-15T09:41:23;96616.97;;;5.35;100.00
16030;BME280;34770;49.272;11.070;2023-01-15T09:47:05;96630.94;;;5.54;100.00
16030;BME280;34770;49.272;11.070;2023-01-15T09:52:51;96637.88;;;5.36;100.00
16030;BME280;34770;49.272;11.070;2023-01-15T09:55:29;96636.72;;;5.49;100.00
16030;BME280;34770;49.272;11.070;2023-01-15T09:58:01;96618.44;;;5.45;100.00
16030;BME280;34770;49.272;11.070;2023-01-15T10:00:33;96636.03;;;5.40;100.00
16030;BME280;34770;49.272;11.070;2023-01-15T10:05:43;96639.94;;;5.39;100.00
16030;BME280;34770;49.272;11.070;2023-01-15T10:08:15;96646.81;;;5.45;100.00
16030;BME280;34770;49.272;11.070;2023-01-15T10:10:54;96633.28;;;5.40;100.00
16030;BME280;34770;49.272;11.070;2023-01-15T10:16:12;96630.97;;;5.42;100.00
16030;BME280;34770;49.272;11.070;2023-01-15T10:18:42;96651.75;;;5.52;100.00
16030;BME280;34770;49.272;11.070;2023-01-15T10:24:13;96663.84;;;5.47;100.00
16030;BME280;34770;49.272;11.070;2023-01-15T10:31:54;96693.59;;;5.54;100.00
16030;BME280;34770;49.272;11.070;2023-01-15T10:34:42;96696.03;;;5.55;100.00
16030;BME280;34770;49.272;11.070;2023-01-15T10:45:25;96684.97;;;5.02;100.00
16030;BME280;34770;49.272;11.070;2023-01-15T10:50:31;96711.72;;;5.14;100.00
16030;BME280;34770;49.272;11.070;2023-01-15T10:53:08;96715.97;;;5.24;100.00
16030;BME280;34770;49.272;11.070;2023-01-15T10:55:44;96707.34;;;5.13;100.00
16030;BME280;34770;49.272;11.070;2023-01-15T11:01:04;96707.81;;;4.90;100.00
16030;BME280;34770;49.272;11.070;2023-01-15T11:03:36;96694.16;;;4.69;100.00
16030;BME280;34770;49.272;11.070;2023-01-15T11:06:03;96727.13;;;4.78;100.00
16030;BME280;34770;49.272;11.070;2023-01-15T11:08:30;96716.22;;;4.82;100.00
16030;BME280;34770;49.272;11.070;2023-01-15T11:10:57;96719.53;;;4.75;100.00
16030;BME280;34770;49.272;11.070;2023-01-15T11:13:30;96731.25;;;4.97;100.00
16030;BME280;34770;49.272;11.070;2023-01-15T11:16:21;96715.84;;;4.83;100.00
16030;BME280;34770;49.272;11.070;2023-01-15T11:19:37;96711.94;;;4.84;100.00
16030;BME280;34770;49.272;11.070;2023-01-15T11:22:11;96715.06;;;4.83;100.00
16030;BME280;34770;49.272;11.070;2023-01-15T11:24:49;96726.31;;;4.90;100.00
16030;BME280;34770;49.272;11.070;2023-01-15T11:27:21;96729.75;;;4.74;100.00
16030;BME280;34770;49.272;11.070;2023-01-15T11:29:54;96739.41;;;4.81;100.00
16030;BME280;34770;49.272;11.070;2023-01-15T11:32:33;96740.91;;;4.78;100.00
16030;BME280;34770;49.272;11.070;2023-01-15T11:35:14;96746.06;;;4.79;100.00
16030;BME280;34770;49.272;11.070;2023-01-15T11:37:40;96740.06;;;4.77;100.00
16030;BME280;34770;49.272;11.070;2023-01-15T11:40:16;96736.28;;;4.82;100.00
16030;BME280;34770;49.272;11.070;2023-01-15T11:42:46;96737.66;;;4.88;100.00
16030;BME280;34770;49.272;11.070;2023-01-15T11:45:30;96722.97;;;4.72;100.00
16030;BME280;34770;49.272;11.070;2023-01-15T11:48:16;96731.56;;;4.70;100.00
16030;BME280;34770;49.272;11.070;2023-01-15T11:51:13;96726.53;;;4.72;100.00
16030;BME280;34770;49.272;11.070;2023-01-15T11:53:43;96734.91;;;4.76;100.00
16030;BME280;34770;49.272;11.070;2023-01-15T11:56:17;96732.84;;;4.73;100.00
16030;BME280;34770;49.272;11.070;2023-01-15T11:58:48;96740.91;;;4.78;100.00
16030;BME280;34770;49.272;11.070;2023-01-15T12:01:31;96735.81;;;4.68;100.00
16030;BME280;34770;49.272;11.070;2023-01-15T12:03:59;96760.75;;;4.84;100.00
16030;BME280;34770;49.272;11.070;2023-01-15T12:06:26;96761.56;;;4.72;100.00
16030;BME280;34770;49.272;11.070;2023-01-15T12:23:37;96780.13;;;4.62;100.00
16030;BME280;34770;49.272;11.070;2023-01-15T12:29:12;96790.69;;;4.60;100.00
16030;BME280;34770;49.272;11.070;2023-01-15T12:31:52;96808.44;;;4.72;100.00
16030;BME280;34770;49.272;11.070;2023-01-15T12:37:04;96810.22;;;4.55;100.00
16030;BME280;34770;49.272;11.070;2023-01-15T12:39:32;96812.03;;;4.51;100.00
16030;BME280;34770;49.272;11.070;2023-01-15T12:42:06;96800.03;;;4.35;100.00
16030;BME280;34770;49.272;11.070;2023-01-15T12:44:54;96814.28;;;4.37;100.00
16030;BME280;34770;49.272;11.070;2023-01-15T12:47:53;96818.97;;;4.36;100.00
16030;BME280;34770;49.272;11.070;2023-01-15T12:50:27;96830.13;;;4.40;100.00
16030;BME280;34770;49.272;11.070;2023-01-15T12:55:44;96842.16;;;4.35;100.00
16030;BME280;34770;49.272;11.070;2023-01-15T12:58:22;96842.44;;;4.21;100.00
16030;BME280;34770;49.272;11.070;2023-01-15T13:01:21;96853.59;;;4.25;100.00
16030;BME280;34770;49.272;11.070;2023-01-15T13:06:25;96863.34;;;4.22;100.00
16030;BME280;34770;49.272;11.070;2023-01-15T13:08:57;96880.13;;;4.29;100.00
16030;BME280;34770;49.272;11.070;2023-01-15T13:11:24;96846.28;;;4.08;100.00
16030;BME280;34770;49.272;11.070;2023-01-15T13:13:50;96886.16;;;4.23;100.00
16030;BME280;34770;49.272;11.070;2023-01-15T13:21:54;96889.22;;;4.00;100.00
16030;BME280;34770;49.272;11.070;2023-01-15T13:30:48;96900.13;;;3.96;100.00
16030;BME280;34770;49.272;11.070;2023-01-15T13:32:56;96884.28;;;3.93;100.00
16030;BME280;34770;49.272;11.070;2023-01-15T13:35:32;96897.97;;;4.02;100.00
16030;BME280;34770;49.272;11.070;2023-01-15T13:38:02;96875.94;;;3.81;100.00
16030;BME280;34770;49.272;11.070;2023-01-15T13:40:41;96900.50;;;3.86;100.00
16030;BME280;34770;49.272;11.070;2023-01-15T13:43:35;96903.22;;;3.95;100.00
16030;BME280;34770;49.272;11.070;2023-01-15T13:46:04;96903.22;;;3.95;100.00
16030;BME280;34770;49.272;11.070;2023-01-15T13:48:36;96908.13;;;3.89;100.00
16030;BME280;34770;49.272;11.070;2023-01-15T13:51:05;96895.56;;;3.71;100.00
16030;BME280;34770;49.272;11.070;2023-01-15T13:53:39;96916.53;;;3.84;100.00
16030;BME280;34770;49.272;11.070;2023-01-15T13:56:11;96913.47;;;3.86;100.00
16030;BME280;34770;49.272;11.070;2023-01-15T13:59:03;96914.13;;;3.82;100.00
16030;BME280;34770;49.272;11.070;2023-01-15T14:04:01;96930.78;;;3.86;100.00
16030;BME280;34770;49.272;11.070;2023-01-15T14:06:54;96938.91;;;3.82;100.00
16030;BME280;34770;49.272;11.070;2023-01-15T14:20:13;96966.94;;;3.76;100.00
16030;BME280;34770;49.272;11.070;2023-01-15T14:25:59;96979.41;;;3.73;100.00
16030;BME280;34770;49.272;11.070;2023-01-15T14:33:47;96990.63;;;3.68;100.00
16030;BME280;34770;49.272;11.070;2023-01-15T14:36:19;97003.44;;;3.55;100.00
16030;BME280;34770;49.272;11.070;2023-01-15T14:38:54;97000.03;;;3.58;100.00
16030;BME280;34770;49.272;11.070;2023-01-15T14:41:26;96999.09;;;3.54;100.00
16030;BME280;34770;49.272;11.070;2023-01-15T14:43:53;96993.25;;;3.56;100.00
16030;BME280;34770;49.272;11.070;2023-01-15T14:46:32;97002.94;;;3.62;100.00
16030;BME280;34770;49.272;11.070;2023-01-15T14:49:00;97002.31;;;3.56;100.00
16030;BME280;34770;49.272;11.070;2023-01-15T14:51:34;97000.22;;;3.53;100.00
16030;BME280;34770;49.272;11.070;2023-01-15T14:54:15;97020.75;;;3.64;100.00
16030;BME280;34770;49.272;11.070;2023-01-15T14:56:48;97018.31;;;3.63;100.00
16030;BME280;34770;49.272;11.070;2023-01-15T14:59:46;97019.94;;;3.55;100.00
16030;BME280;34770;49.272;11.070;2023-01-15T15:02:23;97012.41;;;3.43;100.00
16030;BME280;34770;49.272;11.070;2023-01-15T15:04:53;96996.03;;;3.47;100.00
16030;BME280;34770;49.272;11.070;2023-01-15T15:07:25;96996.34;;;3.45;100.00
16030;BME280;34770;49.272;11.070;2023-01-15T15:10:03;97014.94;;;3.57;100.00
16030;BME280;34770;49.272;11.070;2023-01-15T15:12:41;97016.75;;;3.53;100.00
16030;BME280;34770;49.272;11.070;2023-01-15T15:26:04;97022.38;;;3.48;100.00
16030;BME280;34770;49.272;11.070;2023-01-15T15:28:30;97029.53;;;3.40;100.00
16030;BME280;34770;49.272;11.070;2023-01-15T15:30:57;97034.41;;;3.34;100.00
16030;BME280;34770;49.272;11.070;2023-01-15T15:33:47;97033.75;;;3.38;100.00
16030;BME280;34770;49.272;11.070;2023-01-15T15:36:12;97036.03;;;3.27;100.00
16030;BME280;34770;49.272;11.070;2023-01-15T15:38:38;97025.53;;;3.11;100.00
16030;BME280;34770;49.272;11.070;2023-01-15T15:41:10;97042.03;;;3.20;100.00